createdAt,value
2023-03-21T06:03:09.731Z,605.00
2023-03-21T06:04:10.877Z,607.00
2023-03-21T06:05:10.778Z,608.00
2023-03-21T06:06:10.765Z,607.00
2023-03-21T06:07:10.807Z,608.00
2023-03-21T06:08:09.846Z,610.00
2023-03-21T06:09:09.837Z,614.00
2023-03-21T06:10:10.883Z,612.00
2023-03-21T06:11:11.005Z,614.00
2023-03-21T06:12:11.070Z,614.00
2023-03-21T06:13:10.060Z,615.00
2023-03-21T06:14:11.130Z,611.00
2023-03-21T06:15:11.138Z,610.00
2023-03-21T06:16:10.246Z,609.00
2023-03-21T06:17:10.210Z,611.00
2023-03-21T06:18:11.243Z,613.00
2023-03-21T06:19:11.314Z,613.00
2023-03-21T06:20:11.320Z,616.00
2023-03-21T06:21:11.354Z,613.00
2023-03-21T06:22:11.405Z,609.00
2023-03-21T06:23:11.436Z,607.00
2023-03-21T06:24:10.476Z,607.00
2023-03-21T06:25:10.502Z,610.00
2023-03-21T06:26:11.537Z,611.00
2023-03-21T06:27:11.578Z,612.00
2023-03-21T06:28:11.619Z,611.00
2023-03-21T06:29:10.635Z,610.00
2023-03-21T06:30:10.675Z,606.00
2023-03-21T06:31:11.732Z,608.00
2023-03-21T06:32:10.730Z,607.00
2023-03-21T06:33:11.748Z,609.00
2023-03-21T06:34:11.811Z,611.00
2023-03-21T06:35:10.796Z,612.00
2023-03-21T06:36:10.785Z,610.00
2023-03-21T06:37:11.816Z,610.00
2023-03-21T06:38:11.858Z,608.00
2023-03-21T06:39:11.877Z,606.00
2023-03-21T06:40:11.903Z,607.00
2023-03-21T06:41:11.933Z,603.00
2023-03-21T06:42:11.936Z,602.00
2023-03-21T06:43:11.952Z,605.00
2023-03-21T06:44:11.984Z,602.00
2023-03-21T06:45:11.993Z,602.00
2023-03-21T06:46:12.027Z,598.00
2023-03-21T06:47:12.038Z,598.00
2023-03-21T06:48:12.149Z,602.00
2023-03-21T06:49:12.076Z,599.00
2023-03-21T06:50:12.084Z,601.00
2023-03-21T06:51:12.147Z,601.00
2023-03-21T06:52:12.129Z,604.00
2023-03-21T06:53:12.164Z,608.00
2023-03-21T06:54:12.296Z,607.00
2023-03-21T06:55:12.167Z,607.00
2023-03-21T06:56:12.188Z,610.00
2023-03-21T06:57:12.219Z,609.00
2023-03-21T06:58:12.235Z,611.00
2023-03-21T06:59:12.254Z,608.00
2023-03-21T07:00:12.250Z,608.00
2023-03-21T07:01:11.318Z,608.00
2023-03-21T07:02:11.402Z,605.00
2023-03-21T07:03:12.324Z,606.00
2023-03-21T07:04:12.336Z,608.00
2023-03-21T07:05:12.341Z,608.00
2023-03-21T07:06:12.359Z,607.00
2023-03-21T07:07:12.413Z,604.00
2023-03-21T07:09:12.443Z,609.00
2023-03-21T07:10:12.477Z,607.00
2023-03-21T07:11:12.492Z,605.00
2023-03-21T07:12:12.527Z,610.00
2023-03-21T07:13:12.560Z,610.00
2023-03-21T07:14:11.592Z,608.00
2023-03-21T07:15:12.624Z,609.00
2023-03-21T07:16:11.756Z,611.00
2023-03-21T07:17:12.679Z,609.00
2023-03-21T07:18:12.732Z,607.00
2023-03-21T07:19:12.764Z,604.00
2023-03-21T07:20:11.788Z,602.00
2023-03-21T07:21:11.827Z,601.00
2023-03-21T07:22:12.826Z,602.00
2023-03-21T07:23:12.873Z,606.00
2023-03-21T07:24:11.868Z,603.00
2023-03-21T07:25:11.988Z,601.00
2023-03-21T07:26:12.914Z,602.00
2023-03-21T07:27:12.963Z,604.00
2023-03-21T07:28:12.980Z,605.00
2023-03-21T07:29:13.033Z,607.00
2023-03-21T07:30:13.070Z,604.00
2023-03-21T07:31:12.117Z,606.00
2023-03-21T07:32:13.098Z,606.00
2023-03-21T07:33:13.132Z,602.00
2023-03-21T07:34:12.154Z,604.00
2023-03-21T07:35:13.196Z,602.00
2023-03-21T07:36:13.305Z,601.00
2023-03-21T07:37:13.263Z,603.00
2023-03-21T07:38:13.320Z,600.00
2023-03-21T07:39:13.376Z,601.00
2023-03-21T07:40:12.412Z,601.00
2023-03-21T07:41:13.475Z,601.00
2023-03-21T07:42:13.498Z,600.00
2023-03-21T07:43:13.514Z,600.00
2023-03-21T07:44:13.541Z,599.00
2023-03-21T07:45:13.587Z,601.00
2023-03-21T07:46:13.676Z,601.00
2023-03-21T07:47:13.647Z,603.00
2023-03-21T07:48:13.847Z,603.00
2023-03-21T07:49:13.720Z,603.00
2023-03-21T07:50:13.745Z,601.00
2023-03-21T07:51:13.834Z,599.00
2023-03-21T07:52:13.986Z,681.00
2023-03-21T07:53:12.863Z,680.00
2023-03-21T07:54:15.029Z,795.00
2023-03-21T07:55:14.373Z,808.00
2023-03-21T07:56:13.960Z,887.00
2023-03-21T07:57:14.187Z,860.00
2023-03-21T07:58:14.190Z,878.00
2023-03-21T07:59:14.040Z,955.00
2023-03-21T08:00:14.072Z,943.00
2023-03-21T08:01:14.075Z,967.00
2023-03-21T08:02:14.133Z,966.00
2023-03-21T08:03:14.033Z,949.00
2023-03-21T08:04:14.020Z,944.00
2023-03-21T08:05:14.020Z,946.00
2023-03-21T08:06:14.029Z,922.00
2023-03-21T08:07:13.027Z,899.00
2023-03-21T08:08:13.083Z,820.00
2023-03-21T08:09:14.089Z,825.00
2023-03-21T08:10:14.076Z,812.00
2023-03-21T08:11:14.123Z,813.00
2023-03-21T08:12:14.196Z,822.00
2023-03-21T08:13:14.168Z,834.00
2023-03-21T08:14:14.134Z,846.00
2023-03-21T08:15:14.156Z,860.00
2023-03-21T08:16:14.179Z,874.00
2023-03-21T08:17:14.254Z,893.00
2023-03-21T08:18:14.293Z,916.00
2023-03-21T08:19:14.372Z,926.00
2023-03-21T08:20:14.376Z,950.00
2023-03-21T08:21:14.432Z,960.00
2023-03-21T08:22:13.504Z,973.00
2023-03-21T08:23:14.518Z,971.00
2023-03-21T08:24:14.536Z,993.00
2023-03-21T08:25:14.573Z,1007.00
2023-03-21T08:26:14.597Z,1019.00
2023-03-21T08:27:14.689Z,1039.00
2023-03-21T08:28:14.691Z,1045.00
2023-03-21T08:29:14.650Z,1052.00
2023-03-21T08:30:14.685Z,1057.00
2023-03-21T08:31:14.732Z,1068.00
2023-03-21T08:32:14.729Z,1082.00
2023-03-21T08:33:14.678Z,1090.00
2023-03-21T08:34:13.687Z,1103.00
2023-03-21T08:35:14.668Z,1112.00
2023-03-21T08:36:14.737Z,1122.00
2023-03-21T08:37:13.687Z,1125.00
2023-03-21T08:38:14.677Z,1129.00
2023-03-21T08:39:13.713Z,1134.00
2023-03-21T08:40:13.705Z,1142.00
2023-03-21T08:41:13.706Z,1148.00
2023-03-21T08:42:13.692Z,1165.00
2023-03-21T08:43:15.037Z,1177.00
2023-03-21T08:44:14.689Z,1185.00
2023-03-21T08:45:14.874Z,1197.00
2023-03-21T08:46:13.708Z,1203.00
2023-03-21T08:47:14.718Z,1215.00
2023-03-21T08:48:14.784Z,1224.00
2023-03-21T08:49:14.742Z,1234.00
2023-03-21T08:50:14.845Z,1237.00
2023-03-21T08:51:14.765Z,1239.00
2023-03-21T08:52:14.753Z,1252.00
2023-03-21T08:53:13.756Z,1231.00
2023-03-21T08:54:14.789Z,1124.00
2023-03-21T08:55:14.863Z,968.00
2023-03-21T08:56:14.881Z,946.00
2023-03-21T08:57:14.940Z,946.00
2023-03-21T08:58:14.003Z,1003.00
2023-03-21T08:59:14.045Z,987.00
2023-03-21T09:00:15.311Z,993.00
2023-03-21T09:01:15.113Z,991.00
2023-03-21T09:02:14.128Z,993.00
2023-03-21T09:03:15.253Z,1008.00
2023-03-21T09:04:15.204Z,1026.00
2023-03-21T09:05:15.278Z,1045.00
2023-03-21T09:06:15.191Z,1061.00
2023-03-21T09:07:15.186Z,1090.00
2023-03-21T09:08:15.173Z,1111.00
2023-03-21T09:09:15.238Z,1126.00
2023-03-21T09:10:20.970Z,1130.00
2023-03-21T09:11:15.212Z,1182.00
2023-03-21T09:12:15.186Z,1189.00
2023-03-21T09:13:15.185Z,1197.00
2023-03-21T09:14:15.172Z,1202.00
2023-03-21T09:15:15.210Z,1209.00
2023-03-21T09:16:15.188Z,1219.00
2023-03-21T09:17:15.165Z,1230.00
2023-03-21T09:18:15.175Z,1240.00
2023-03-21T09:19:15.143Z,1252.00
2023-03-21T09:21:15.125Z,1270.00
2023-03-21T09:22:14.136Z,1282.00
2023-03-21T09:23:15.223Z,1311.00
2023-03-21T09:24:15.093Z,1324.00
2023-03-21T09:25:15.105Z,1330.00
2023-03-21T09:26:15.376Z,1339.00
2023-03-21T09:27:15.126Z,1342.00
2023-03-21T09:28:15.068Z,1346.00
2023-03-21T09:29:16.205Z,1346.00
2023-03-21T09:30:15.054Z,1387.00
2023-03-21T09:31:15.382Z,1401.00
2023-03-21T09:32:15.063Z,1413.00
2023-03-21T09:33:15.055Z,1414.00
2023-03-21T09:34:15.037Z,1414.00
2023-03-21T09:35:15.089Z,1420.00
2023-03-21T09:36:15.297Z,1427.00
2023-03-21T09:37:15.241Z,1431.00
2023-03-21T09:38:15.269Z,1432.00
2023-03-21T09:39:14.358Z,1437.00
2023-03-21T09:40:15.448Z,1446.00
2023-03-21T09:41:14.765Z,1446.00
2023-03-21T09:42:15.951Z,1454.00
2023-03-21T09:43:15.569Z,1461.00
2023-03-21T09:44:15.635Z,1467.00
2023-03-21T09:45:14.684Z,1467.00
2023-03-21T09:46:15.805Z,1480.00
2023-03-21T09:47:15.782Z,1497.00
2023-03-21T09:48:15.906Z,1504.00
2023-03-21T09:49:15.924Z,1510.00
2023-03-21T09:50:15.968Z,1514.00
2023-03-21T09:51:16.055Z,1523.00
2023-03-21T09:52:16.073Z,1531.00
2023-03-21T09:53:15.093Z,1540.00
2023-03-21T09:54:16.243Z,1557.00
2023-03-21T09:55:16.286Z,1567.00
2023-03-21T09:56:16.370Z,1577.00
2023-03-21T09:57:15.307Z,1598.00
2023-03-21T09:58:16.438Z,1609.00
2023-03-21T09:59:16.388Z,1618.00
2023-03-21T10:00:16.458Z,1624.00
2023-03-21T10:01:15.687Z,1639.00
2023-03-21T10:02:15.563Z,1647.00
2023-03-21T10:03:16.624Z,1649.00
2023-03-21T10:04:15.765Z,1652.00
2023-03-21T10:05:16.692Z,1651.00
2023-03-21T10:06:16.742Z,1657.00
2023-03-21T10:07:16.821Z,1663.00
2023-03-21T10:08:16.830Z,1680.00
2023-03-21T10:09:15.890Z,1714.00
2023-03-21T10:10:16.937Z,1717.00
2023-03-21T10:11:15.989Z,1722.00
2023-03-21T10:12:17.037Z,1731.00
2023-03-21T10:13:16.095Z,1737.00
2023-03-21T10:14:17.129Z,1737.00
2023-03-21T10:15:16.241Z,1744.00
2023-03-21T10:16:17.417Z,1756.00
2023-03-21T10:18:17.259Z,1766.00
2023-03-21T10:19:17.294Z,1778.00
2023-03-21T10:20:17.300Z,1778.00
2023-03-21T10:21:37.385Z,1784.00
2023-03-21T10:22:17.319Z,1791.00
2023-03-21T10:23:17.309Z,1804.00
2023-03-21T10:24:17.306Z,1817.00
2023-03-21T10:25:16.319Z,1823.00
2023-03-21T10:26:17.583Z,1826.00
2023-03-21T10:27:16.280Z,1834.00
2023-03-21T10:28:17.282Z,1840.00
2023-03-21T10:29:16.308Z,1846.00
2023-03-21T10:30:17.326Z,1845.00
2023-03-21T10:31:17.348Z,1848.00
2023-03-21T10:32:17.266Z,1848.00
2023-03-21T10:33:17.318Z,1852.00
2023-03-21T10:34:17.259Z,1851.00
2023-03-21T10:35:17.269Z,1855.00
2023-03-21T10:36:17.313Z,1857.00
2023-03-21T10:37:17.316Z,1856.00
2023-03-21T10:38:16.404Z,1862.00
2023-03-21T10:39:17.448Z,1875.00
2023-03-21T10:40:17.472Z,1875.00
2023-03-21T10:41:17.883Z,1893.00
2023-03-21T10:42:17.555Z,1915.00
2023-03-21T10:43:17.595Z,1912.00
2023-03-21T10:44:17.658Z,1908.00
2023-03-21T10:45:16.698Z,1898.00
2023-03-21T10:46:18.077Z,1899.00
2023-03-21T10:47:17.027Z,1901.00
2023-03-21T10:48:18.047Z,1894.00
2023-03-21T10:49:17.824Z,1943.00
2023-03-21T10:50:17.983Z,1972.00
2023-03-21T10:51:18.404Z,1999.00
2023-03-21T10:52:18.004Z,2032.00
2023-03-21T10:53:18.018Z,2075.00
2023-03-21T10:54:18.008Z,2145.00
2023-03-21T10:55:18.051Z,2123.00
2023-03-21T10:56:18.095Z,2103.00
2023-03-21T10:57:17.174Z,2119.00
2023-03-21T10:58:18.139Z,2126.00
2023-03-21T10:59:18.833Z,2136.00
2023-03-21T11:00:17.131Z,2206.00
2023-03-21T11:01:18.166Z,2172.00
2023-03-21T11:02:18.297Z,2155.00
2023-03-21T11:03:18.224Z,2156.00
2023-03-21T11:04:18.224Z,2157.00
2023-03-21T11:05:20.500Z,2162.00
2023-03-21T11:06:18.234Z,2169.00
2023-03-21T11:07:18.225Z,2178.00
2023-03-21T11:08:18.253Z,2177.00
2023-03-21T11:09:18.205Z,2178.00
2023-03-21T11:10:28.057Z,2185.00
2023-03-21T11:11:19.347Z,2190.00
2023-03-21T11:12:18.184Z,2193.00
2023-03-21T11:13:18.196Z,2196.00
2023-03-21T11:14:18.171Z,2198.00
2023-03-21T11:15:17.170Z,2196.00
2023-03-21T11:16:18.233Z,2197.00
2023-03-21T11:17:18.176Z,2202.00
2023-03-21T11:18:18.155Z,2208.00
2023-03-21T11:19:17.289Z,2207.00
2023-03-21T11:20:18.237Z,2207.00
2023-03-21T11:21:17.153Z,2210.00
2023-03-21T11:22:17.117Z,2214.00
2023-03-21T11:23:20.518Z,2204.00
2023-03-21T11:24:18.100Z,2205.00
2023-03-21T11:25:18.090Z,2202.00
2023-03-21T11:26:18.115Z,2204.00
2023-03-21T11:27:17.091Z,2207.00
2023-03-21T11:28:18.081Z,2205.00
2023-03-21T11:29:18.442Z,2209.00
2023-03-21T11:30:18.141Z,2211.00
2023-03-21T11:31:18.164Z,2205.00
2023-03-21T11:32:18.048Z,2201.00
2023-03-21T11:33:18.040Z,2196.00
2023-03-21T11:34:18.054Z,2195.00
2023-03-21T11:35:19.717Z,2184.00
2023-03-21T11:36:17.464Z,2192.00
2023-03-21T11:38:17.344Z,2197.00
2023-03-21T11:41:18.514Z,2189.00
2023-03-21T11:44:18.405Z,2180.00
2023-03-21T11:48:18.474Z,2169.00
2023-03-21T11:49:18.428Z,2174.00
2023-03-21T11:51:17.484Z,2183.00
2023-03-21T11:53:18.534Z,2224.00
2023-03-21T11:55:17.727Z,2218.00
2023-03-21T11:56:18.797Z,2227.00
2023-03-21T11:57:18.730Z,2231.00
2023-03-21T11:58:17.710Z,2230.00
2023-03-21T11:59:17.626Z,2233.00
2023-03-21T12:01:17.721Z,2240.00
2023-03-21T12:14:19.233Z,2349.00
2023-03-21T12:18:19.534Z,2373.00
2023-03-21T12:25:19.814Z,2438.00
2023-03-21T12:26:19.874Z,2442.00
2023-03-21T12:30:19.133Z,2474.00
2023-03-21T12:48:20.472Z,2442.00
2023-03-21T12:55:20.399Z,2433.00
2023-03-21T13:23:20.229Z,2412.00
2023-03-21T13:37:20.842Z,2380.00
2023-03-21T13:55:20.753Z,2368.00
2023-03-21T13:56:21.817Z,2370.00
2023-03-21T13:58:21.920Z,2364.00
2023-03-21T14:05:21.349Z,2348.00
2023-03-21T14:21:24.290Z,2311.00
2023-03-21T14:22:23.303Z,2304.00
2023-03-21T14:23:23.314Z,2306.00
2023-03-21T14:24:23.380Z,2305.00
2023-03-21T14:25:27.176Z,2303.00
2023-03-21T14:29:26.392Z,2294.00
2023-03-21T14:30:23.389Z,2298.00
2023-03-21T14:31:23.443Z,2302.00
2023-03-21T14:32:23.381Z,2297.00
2023-03-21T14:34:23.383Z,2295.00
2023-03-21T14:35:23.461Z,2291.00
2023-03-21T14:36:22.502Z,2288.00
2023-03-21T14:37:23.344Z,2289.00
2023-03-21T14:38:23.332Z,2289.00
2023-03-21T14:39:22.330Z,2287.00
2023-03-21T14:40:23.313Z,2281.00
2023-03-21T14:41:23.326Z,2285.00
2023-03-21T14:42:23.316Z,2287.00
2023-03-21T14:43:22.324Z,2280.00
2023-03-21T14:44:23.304Z,2281.00
2023-03-21T14:46:23.339Z,2274.00
2023-03-21T14:47:23.315Z,2276.00
2023-03-21T14:48:22.369Z,2278.00
2023-03-21T14:49:23.280Z,2280.00
2023-03-21T14:50:23.260Z,2277.00
2023-03-21T14:51:23.383Z,2270.00
2023-03-21T14:52:22.245Z,2263.00
2023-03-21T14:53:23.228Z,2261.00
2023-03-21T14:54:23.226Z,2261.00
2023-03-21T14:55:23.226Z,2262.00
2023-03-21T14:56:23.230Z,2260.00
2023-03-21T14:57:23.216Z,2258.00
2023-03-21T14:58:23.228Z,2252.00
2023-03-21T14:59:23.193Z,2252.00
2023-03-21T15:00:23.190Z,2250.00
2023-03-21T15:01:23.263Z,2254.00
2023-03-21T15:02:23.212Z,2260.00
2023-03-21T15:03:22.184Z,2255.00
2023-03-21T15:04:23.177Z,2249.00
2023-03-21T15:05:22.238Z,2249.00
2023-03-21T15:06:23.223Z,2249.00
2023-03-21T15:07:23.297Z,2246.00
2023-03-21T15:08:23.135Z,2238.00
2023-03-21T15:09:23.157Z,2235.00
2023-03-21T15:10:23.137Z,2232.00
2023-03-21T15:11:23.126Z,2233.00
2023-03-21T15:12:23.127Z,2233.00
2023-03-21T15:13:23.156Z,2233.00
2023-03-21T15:14:23.100Z,2231.00
2023-03-21T15:15:22.103Z,2230.00
2023-03-21T15:16:23.155Z,2228.00
2023-03-21T15:17:23.078Z,2226.00
2023-03-21T15:18:23.076Z,2228.00
2023-03-21T15:19:23.335Z,2226.00
2023-03-21T15:20:23.129Z,2224.00
2023-03-21T15:21:23.123Z,2222.00
2023-03-21T15:22:23.137Z,2224.00
2023-03-21T15:23:23.332Z,2221.00
2023-03-21T15:24:23.290Z,2220.00
2023-03-21T15:25:22.246Z,2215.00
2023-03-21T15:26:22.288Z,2207.00
2023-03-21T15:27:23.232Z,2205.00
2023-03-21T15:28:22.245Z,2204.00
2023-03-21T15:29:23.235Z,2199.00
2023-03-21T15:30:23.248Z,2200.00
2023-03-21T15:31:23.380Z,2202.00
2023-03-21T15:32:23.241Z,2200.00
2023-03-21T15:33:23.241Z,2201.00
2023-03-21T15:34:23.245Z,2199.00
2023-03-21T15:35:23.251Z,2196.00
2023-03-21T15:36:23.340Z,2195.00
2023-03-21T15:37:23.242Z,2192.00
2023-03-21T15:38:23.259Z,2193.00
2023-03-21T15:39:23.375Z,2196.00
2023-03-21T15:40:23.262Z,2198.00
2023-03-21T15:41:23.289Z,2202.00
2023-03-21T15:42:23.299Z,2201.00
2023-03-21T15:43:23.290Z,2204.00
2023-03-21T15:44:23.271Z,2203.00
2023-03-21T15:45:22.276Z,2198.00
2023-03-21T15:46:23.791Z,2190.00
2023-03-21T15:47:22.293Z,2189.00
2023-03-21T15:54:22.330Z,2179.00
2023-03-21T15:57:23.354Z,2168.00
2023-03-21T16:00:22.435Z,2168.00
2023-03-21T16:01:23.479Z,2160.00
2023-03-21T16:07:23.493Z,2133.00
2023-03-21T16:13:23.592Z,2135.00
2023-03-21T16:16:22.658Z,2125.00
2023-03-21T16:18:23.598Z,2120.00
2023-03-21T16:21:23.635Z,2112.00
